createdAt,value
2022-10-09T00:01:13.674Z,19.80
2022-10-09T00:03:43.215Z,19.80
2022-10-09T00:06:13.973Z,19.80
2022-10-09T00:08:43.904Z,19.80
2022-10-09T00:11:14.965Z,19.80
2022-10-09T00:13:42.226Z,19.80
2022-10-09T00:16:11.894Z,19.80
2022-10-09T00:18:39.649Z,19.70
2022-10-09T00:21:15.104Z,19.70
2022-10-09T00:23:42.813Z,19.80
2022-10-09T00:26:12.295Z,19.80
2022-10-09T00:28:39.717Z,19.80
2022-10-09T00:31:08.934Z,19.80
2022-10-09T00:33:37.260Z,19.70
2022-10-09T00:36:09.909Z,19.70
2022-10-09T00:38:38.604Z,19.70
2022-10-09T00:41:06.685Z,19.70
2022-10-09T00:44:00.968Z,19.70
2022-10-09T00:46:36.763Z,19.70
2022-10-09T00:49:29.992Z,19.70
2022-10-09T00:52:00.721Z,19.70
2022-10-09T00:54:31.800Z,19.70
2022-10-09T00:56:59.497Z,19.70
2022-10-09T00:59:27.409Z,19.60
2022-10-09T01:01:54.892Z,19.60
2022-10-09T01:04:22.490Z,19.60
2022-10-09T01:07:29.344Z,19.60
2022-10-09T01:10:10.438Z,19.60
2022-10-09T01:13:10.574Z,19.60
2022-10-09T01:16:04.738Z,19.60
2022-10-09T01:18:40.178Z,19.60
2022-10-09T01:21:19.429Z,19.60
2022-10-09T01:24:05.444Z,19.60
2022-10-09T01:27:02.750Z,19.50
2022-10-09T01:29:38.877Z,19.50
2022-10-09T01:32:07.970Z,19.50
2022-10-09T01:34:37.575Z,19.50
2022-10-09T01:37:06.147Z,19.50
2022-10-09T01:39:35.511Z,19.50
2022-10-09T01:42:03.406Z,19.50
2022-10-09T01:44:32.671Z,19.50
2022-10-09T01:47:00.886Z,19.50
2022-10-09T01:49:40.559Z,19.50
2022-10-09T01:52:26.489Z,19.50
2022-10-09T01:55:03.525Z,19.50
2022-10-09T01:57:50.439Z,19.50
2022-10-09T02:00:18.495Z,19.50
2022-10-09T02:02:47.557Z,19.50
2022-10-09T02:05:22.665Z,19.50
2022-10-09T02:07:50.347Z,19.50
2022-10-09T02:10:20.668Z,19.40
2022-10-09T02:12:54.207Z,19.40
2022-10-09T02:15:25.540Z,19.40
2022-10-09T02:17:56.206Z,19.40
2022-10-09T02:20:33.102Z,19.40
2022-10-09T02:23:05.242Z,19.40
2022-10-09T02:25:33.286Z,19.40
2022-10-09T02:28:01.727Z,19.40
2022-10-09T02:30:39.347Z,19.40
2022-10-09T02:33:06.743Z,19.40
2022-10-09T02:35:34.305Z,19.40
2022-10-09T02:38:01.650Z,19.40
2022-10-09T02:40:29.001Z,19.40
2022-10-09T02:42:56.626Z,19.40
2022-10-09T02:45:24.035Z,19.40
2022-10-09T02:47:51.387Z,19.40
2022-10-09T02:50:18.805Z,19.40
2022-10-09T02:52:46.445Z,19.40
2022-10-09T02:55:14.120Z,19.30
2022-10-09T02:57:41.459Z,19.40
2022-10-09T03:00:09.346Z,19.40
2022-10-09T03:02:36.861Z,19.30
2022-10-09T03:05:04.516Z,19.30
2022-10-09T03:07:32.043Z,19.30
2022-10-09T03:09:59.464Z,19.30
2022-10-09T03:12:26.819Z,19.30
2022-10-09T03:14:54.477Z,19.30
2022-10-09T03:17:21.837Z,19.30
2022-10-09T03:19:49.204Z,19.30
2022-10-09T03:22:16.648Z,19.30
2022-10-09T03:24:44.091Z,19.30
2022-10-09T03:27:11.518Z,19.30
2022-10-09T03:29:38.887Z,19.30
2022-10-09T03:32:06.332Z,19.20
2022-10-09T03:34:33.711Z,19.20
2022-10-09T03:37:01.096Z,19.30
2022-10-09T03:39:28.453Z,19.30
2022-10-09T03:41:55.856Z,19.20
2022-10-09T03:44:23.250Z,19.20
2022-10-09T03:46:50.727Z,19.20
2022-10-09T03:49:18.136Z,19.20
2022-10-09T03:51:45.498Z,19.20
2022-10-09T03:54:12.850Z,19.20
2022-10-09T03:56:40.282Z,19.20
2022-10-09T03:59:09.647Z,19.20
2022-10-09T04:01:37.109Z,19.20
2022-10-09T04:04:04.510Z,19.20
2022-10-09T04:06:31.966Z,19.20
2022-10-09T04:08:59.317Z,19.20
2022-10-09T04:11:26.800Z,19.20
2022-10-09T04:13:54.134Z,19.20
2022-10-09T04:16:21.559Z,19.10
2022-10-09T04:18:49.652Z,19.10
2022-10-09T04:21:17.034Z,19.10
2022-10-09T04:23:44.429Z,19.10
2022-10-09T04:26:13.139Z,19.10
2022-10-09T04:28:40.664Z,19.10
2022-10-09T04:31:08.442Z,19.10
2022-10-09T04:33:35.975Z,19.10
2022-10-09T04:36:03.554Z,19.10
2022-10-09T04:38:31.978Z,19.10
2022-10-09T04:41:02.032Z,19.10
2022-10-09T04:43:29.967Z,19.10
2022-10-09T04:45:57.872Z,19.10
2022-10-09T04:48:25.545Z,19.10
2022-10-09T04:50:53.007Z,19.00
2022-10-09T04:53:20.373Z,19.10
2022-10-09T04:55:47.818Z,19.00
2022-10-09T04:58:15.240Z,19.00
2022-10-09T05:00:44.726Z,19.00
2022-10-09T05:03:13.021Z,19.00
2022-10-09T05:05:40.475Z,19.00
2022-10-09T05:08:07.910Z,19.00
2022-10-09T05:10:35.294Z,19.00
2022-10-09T05:13:02.722Z,19.00
2022-10-09T05:15:30.394Z,19.00
2022-10-09T05:17:58.046Z,19.00
2022-10-09T05:20:25.419Z,18.90
2022-10-09T05:22:52.987Z,18.90
2022-10-09T05:25:24.535Z,18.90
2022-10-09T05:27:53.135Z,19.00
2022-10-09T05:30:20.535Z,18.90
2022-10-09T05:32:48.173Z,19.00
2022-10-09T05:35:15.980Z,18.90
2022-10-09T05:37:45.783Z,18.90
2022-10-09T05:40:13.159Z,18.90
2022-10-09T05:42:40.514Z,18.90
2022-10-09T05:45:08.662Z,18.90
2022-10-09T05:47:36.022Z,18.90
2022-10-09T05:50:03.731Z,18.90
2022-10-09T05:52:31.134Z,18.90
2022-10-09T05:54:58.571Z,18.90
2022-10-09T05:57:26.432Z,18.90
2022-10-09T05:59:53.812Z,18.90
2022-10-09T06:02:21.273Z,18.90
2022-10-09T06:04:48.804Z,18.90
2022-10-09T06:07:16.174Z,18.90
2022-10-09T06:09:43.623Z,18.80
2022-10-09T06:12:11.044Z,18.80
2022-10-09T06:14:38.407Z,18.80
2022-10-09T06:17:05.873Z,18.80
2022-10-09T06:19:33.280Z,18.80
2022-10-09T06:22:00.652Z,18.80
2022-10-09T06:24:29.425Z,18.80
2022-10-09T06:26:58.010Z,18.80
2022-10-09T06:29:25.964Z,18.80
2022-10-09T06:31:53.389Z,18.70
2022-10-09T06:34:21.062Z,18.70
2022-10-09T06:36:48.965Z,18.80
2022-10-09T06:39:16.540Z,18.80
2022-10-09T06:41:43.903Z,18.80
2022-10-09T06:44:23.911Z,18.70
2022-10-09T06:46:51.557Z,18.70
2022-10-09T06:49:18.943Z,18.70
2022-10-09T06:51:46.391Z,18.70
2022-10-09T06:54:16.431Z,18.70
2022-10-09T06:56:44.684Z,18.80
2022-10-09T06:59:12.148Z,18.70
2022-10-09T07:01:39.757Z,18.70
2022-10-09T07:04:11.298Z,18.70
2022-10-09T07:06:42.147Z,18.70
2022-10-09T07:09:12.962Z,18.70
2022-10-09T07:11:43.454Z,18.70
2022-10-09T07:14:13.111Z,18.70
2022-10-09T07:16:43.033Z,18.70
2022-10-09T07:19:11.909Z,18.70
2022-10-09T07:21:43.107Z,18.70
2022-10-09T07:24:10.834Z,18.70
2022-10-09T07:26:41.964Z,18.60
2022-10-09T07:29:09.903Z,18.60
2022-10-09T07:31:37.294Z,18.60
2022-10-09T07:34:06.432Z,18.60
2022-10-09T07:36:34.243Z,18.60
2022-10-09T07:39:01.785Z,18.70
2022-10-09T07:41:30.366Z,18.70
2022-10-09T07:43:58.680Z,18.70
2022-10-09T07:46:32.246Z,18.70
2022-10-09T07:49:03.198Z,18.70
2022-10-09T07:51:31.642Z,18.70
2022-10-09T07:54:02.162Z,18.70
2022-10-09T07:56:32.528Z,18.80
2022-10-09T07:59:02.451Z,18.80
2022-10-09T08:01:31.109Z,18.90
2022-10-09T08:03:59.277Z,18.90
2022-10-09T08:06:27.123Z,19.00
2022-10-09T08:08:56.317Z,19.10
2022-10-09T08:11:25.652Z,19.10
2022-10-09T08:13:53.934Z,19.20
2022-10-09T08:16:23.318Z,19.30
2022-10-09T08:18:58.871Z,19.40
2022-10-09T08:21:28.585Z,19.50
2022-10-09T08:23:57.839Z,19.60
2022-10-09T08:26:27.558Z,19.70
2022-10-09T08:28:58.118Z,19.80
2022-10-09T08:31:26.188Z,19.90
2022-10-09T08:33:55.251Z,20.00
2022-10-09T08:36:23.750Z,20.10
2022-10-09T08:38:51.701Z,20.10
2022-10-09T08:41:43.706Z,20.30
2022-10-09T08:44:17.895Z,20.30
2022-10-09T08:46:55.072Z,20.40
2022-10-09T08:49:37.103Z,20.50
2022-10-09T08:52:38.792Z,20.60
2022-10-09T08:55:15.189Z,20.70
2022-10-09T08:57:44.093Z,20.80
2022-10-09T09:00:18.900Z,20.80
2022-10-09T09:03:17.005Z,20.90
2022-10-09T09:06:01.454Z,20.90
2022-10-09T09:09:01.270Z,20.90
2022-10-09T09:11:35.432Z,21.00
2022-10-09T09:14:38.838Z,21.00
2022-10-09T09:17:16.031Z,21.10
2022-10-09T09:20:09.133Z,21.10
2022-10-09T09:22:39.427Z,21.10
2022-10-09T09:25:25.785Z,21.20
2022-10-09T09:27:54.864Z,21.20
2022-10-09T09:30:28.090Z,21.20
2022-10-09T09:33:00.885Z,21.20
2022-10-09T09:35:47.176Z,21.20
2022-10-09T09:38:15.481Z,21.30
2022-10-09T09:40:47.242Z,21.30
2022-10-09T09:43:20.459Z,21.30
2022-10-09T09:45:49.289Z,21.30
2022-10-09T09:48:26.946Z,21.40
2022-10-09T09:51:16.082Z,21.40
2022-10-09T09:53:50.274Z,21.40
2022-10-09T09:56:18.184Z,21.50
2022-10-09T09:58:48.086Z,21.50
2022-10-09T10:01:27.697Z,21.60
2022-10-09T10:03:58.349Z,21.60
2022-10-09T10:06:43.693Z,21.70
2022-10-09T10:09:16.961Z,21.70
2022-10-09T10:12:03.634Z,21.70
2022-10-09T10:14:32.832Z,21.80
2022-10-09T10:17:01.808Z,21.80
2022-10-09T10:19:38.944Z,21.90
2022-10-09T10:22:22.528Z,21.90
2022-10-09T10:24:53.829Z,21.90
2022-10-09T10:27:36.033Z,22.00
2022-10-09T10:30:10.566Z,22.00
2022-10-09T10:32:51.505Z,22.10
2022-10-09T10:35:24.452Z,22.10
2022-10-09T10:38:17.504Z,22.10
2022-10-09T10:40:53.131Z,22.20
2022-10-09T10:43:39.440Z,22.10
2022-10-09T10:46:21.083Z,22.20
2022-10-09T10:48:50.295Z,22.20
2022-10-09T10:51:34.288Z,22.20
2022-10-09T10:54:32.641Z,22.20
2022-10-09T10:57:16.219Z,22.20
2022-10-09T11:00:00.791Z,22.30
2022-10-09T11:02:56.648Z,22.30
2022-10-09T11:05:27.147Z,22.30
2022-10-09T11:08:19.956Z,22.30
2022-10-09T11:11:14.274Z,22.30
2022-10-09T11:13:51.528Z,22.30
2022-10-09T11:16:39.245Z,22.30
2022-10-09T11:19:33.043Z,22.30
2022-10-09T11:22:31.834Z,22.40
2022-10-09T11:25:40.902Z,22.30
2022-10-09T11:28:12.494Z,22.40
2022-10-09T11:31:04.488Z,22.40
2022-10-09T11:33:47.046Z,22.40
2022-10-09T11:36:21.905Z,22.50
2022-10-09T11:38:58.929Z,22.50
2022-10-09T11:41:27.758Z,22.50
2022-10-09T11:44:32.081Z,22.50
2022-10-09T11:47:09.433Z,22.50
2022-10-09T11:49:55.907Z,22.60
2022-10-09T11:52:48.321Z,22.60
2022-10-09T11:55:31.297Z,22.50
2022-10-09T11:58:15.519Z,22.60
2022-10-09T12:00:43.442Z,22.50
2022-10-09T12:03:33.756Z,22.60
2022-10-09T12:06:11.466Z,22.50
2022-10-09T12:09:04.152Z,22.60
2022-10-09T12:11:32.966Z,22.60
2022-10-09T12:14:03.738Z,22.60
2022-10-09T12:16:45.316Z,22.60
2022-10-09T12:19:18.820Z,22.50
2022-10-09T12:21:56.178Z,22.50
2022-10-09T12:24:27.837Z,22.60
2022-10-09T12:26:59.979Z,22.50
2022-10-09T12:29:44.879Z,22.60
2022-10-09T12:32:29.419Z,22.60
2022-10-09T12:34:58.161Z,22.60
2022-10-09T12:37:36.622Z,22.60
2022-10-09T12:40:14.330Z,22.60
2022-10-09T12:42:43.532Z,22.60
2022-10-09T12:45:30.092Z,22.70
2022-10-09T12:48:10.341Z,22.70
2022-10-09T12:50:37.994Z,22.70
2022-10-09T12:53:18.381Z,22.70
2022-10-09T12:55:52.600Z,22.70
2022-10-09T12:58:26.864Z,22.70
2022-10-09T13:01:01.368Z,22.70
2022-10-09T13:03:39.230Z,22.70
2022-10-09T13:06:13.355Z,22.70
2022-10-09T13:08:41.739Z,22.70
2022-10-09T13:11:29.331Z,22.70
2022-10-09T13:13:57.348Z,22.70
2022-10-09T13:16:25.334Z,22.70
2022-10-09T13:19:01.155Z,22.70
2022-10-09T13:21:35.301Z,22.70
2022-10-09T13:24:10.924Z,22.70
2022-10-09T13:26:40.964Z,22.80
2022-10-09T13:29:08.677Z,22.70
2022-10-09T13:31:37.146Z,22.80
2022-10-09T13:34:15.057Z,22.70
2022-10-09T13:36:42.606Z,22.70
2022-10-09T13:39:14.780Z,22.80
2022-10-09T13:41:44.373Z,22.80
2022-10-09T13:44:11.935Z,22.80
2022-10-09T13:46:39.412Z,22.80
2022-10-09T13:49:06.915Z,22.80
2022-10-09T13:51:34.871Z,22.80
2022-10-09T13:54:02.360Z,22.80
2022-10-09T13:56:29.940Z,22.80
2022-10-09T13:58:57.409Z,22.90
2022-10-09T14:01:25.003Z,22.90
2022-10-09T14:03:52.611Z,22.80
2022-10-09T14:06:22.504Z,22.90
2022-10-09T14:08:50.407Z,22.90
2022-10-09T14:11:17.833Z,22.90
2022-10-09T14:13:45.440Z,22.90
2022-10-09T14:16:13.109Z,22.90
2022-10-09T14:18:40.629Z,22.90
2022-10-09T14:21:15.394Z,22.90
2022-10-09T14:23:43.455Z,22.90
2022-10-09T14:26:10.894Z,22.90
2022-10-09T14:28:38.512Z,22.90
2022-10-09T14:31:08.798Z,22.90
2022-10-09T14:33:36.238Z,22.90
2022-10-09T14:36:13.493Z,22.90
2022-10-09T14:38:41.860Z,22.90
2022-10-09T14:41:10.099Z,22.90
2022-10-09T14:43:37.588Z,22.90
2022-10-09T14:46:12.396Z,22.90
2022-10-09T14:48:40.358Z,22.90
2022-10-09T14:51:11.520Z,22.90
2022-10-09T14:53:39.446Z,22.90
2022-10-09T14:56:10.134Z,22.80
2022-10-09T14:58:38.259Z,22.80
2022-10-09T15:01:06.231Z,22.80
2022-10-09T15:03:35.966Z,22.80
2022-10-09T15:06:06.112Z,22.80
2022-10-09T15:08:34.957Z,22.80
2022-10-09T15:11:02.766Z,22.80
2022-10-09T15:13:31.931Z,22.80
2022-10-09T15:16:01.207Z,22.70
2022-10-09T15:18:29.335Z,22.70
2022-10-09T15:20:58.009Z,22.70
2022-10-09T15:23:26.646Z,22.70
2022-10-09T15:25:57.186Z,22.70
2022-10-09T15:28:25.590Z,22.70
2022-10-09T15:30:56.114Z,22.70
2022-10-09T15:33:23.579Z,22.60
2022-10-09T15:35:51.710Z,22.60
2022-10-09T15:38:21.438Z,22.60
2022-10-09T15:40:51.108Z,22.60
2022-10-09T15:43:20.369Z,22.60
2022-10-09T15:45:48.585Z,22.60
2022-10-09T15:48:22.977Z,22.60
2022-10-09T15:50:53.679Z,22.50
2022-10-09T15:53:23.520Z,22.50
2022-10-09T15:55:52.977Z,22.50
2022-10-09T15:58:20.856Z,22.50
2022-10-09T16:00:50.421Z,22.50
2022-10-09T16:03:19.357Z,22.40
2022-10-09T16:05:49.729Z,22.40
2022-10-09T16:08:19.152Z,22.40
2022-10-09T16:10:49.443Z,22.50
2022-10-09T16:13:17.737Z,22.50
2022-10-09T16:15:47.593Z,22.40
2022-10-09T16:18:17.223Z,22.40
2022-10-09T16:20:45.884Z,22.40
2022-10-09T16:23:16.645Z,22.40
2022-10-09T16:25:56.382Z,22.40
2022-10-09T16:28:24.304Z,22.40
2022-10-09T16:30:51.834Z,22.40
2022-10-09T16:33:22.595Z,22.40
2022-10-09T16:35:51.144Z,22.40
2022-10-09T16:38:19.889Z,22.40
2022-10-09T16:41:01.423Z,22.40
2022-10-09T16:43:32.804Z,22.30
2022-10-09T16:46:17.187Z,22.30
2022-10-09T16:48:45.485Z,22.30
2022-10-09T16:51:16.167Z,22.30
2022-10-09T16:53:43.961Z,22.30
2022-10-09T16:56:16.146Z,22.30
2022-10-09T16:58:44.198Z,22.30
2022-10-09T17:01:12.529Z,22.30
2022-10-09T17:03:41.313Z,22.30
2022-10-09T17:06:10.539Z,22.20
2022-10-09T17:08:38.203Z,22.20
2022-10-09T17:11:10.859Z,22.20
2022-10-09T17:13:38.855Z,22.20
2022-10-09T17:16:15.789Z,22.20
2022-10-09T17:18:46.479Z,22.20
2022-10-09T17:21:15.162Z,22.10
2022-10-09T17:23:43.618Z,22.10
2022-10-09T17:26:13.973Z,22.10
2022-10-09T17:28:42.645Z,22.10
2022-10-09T17:31:14.443Z,22.10
2022-10-09T17:33:45.067Z,22.10
2022-10-09T17:36:18.177Z,22.10
2022-10-09T17:38:46.131Z,22.10
2022-10-09T17:41:15.825Z,22.10
2022-10-09T17:43:45.234Z,22.10
2022-10-09T17:46:15.042Z,22.00
2022-10-09T17:48:46.970Z,22.00
2022-10-09T17:51:20.114Z,22.00
2022-10-09T17:53:49.432Z,22.00
2022-10-09T17:56:17.129Z,22.00
2022-10-09T17:58:48.633Z,21.90
2022-10-09T18:01:17.897Z,21.90
2022-10-09T18:03:45.803Z,21.90
2022-10-09T18:06:16.383Z,21.90
2022-10-09T18:08:44.034Z,21.90
2022-10-09T18:11:16.551Z,21.90
2022-10-09T18:13:44.922Z,21.90
2022-10-09T18:16:17.700Z,21.90
2022-10-09T18:18:46.322Z,21.80
2022-10-09T18:21:19.155Z,21.80
2022-10-09T18:23:47.662Z,21.80
2022-10-09T18:26:18.089Z,21.80
2022-10-09T18:28:48.335Z,21.80
2022-10-09T18:31:21.355Z,21.80
2022-10-09T18:33:50.157Z,21.80
2022-10-09T18:36:24.553Z,21.80
2022-10-09T18:38:54.439Z,21.80
2022-10-09T18:41:23.233Z,21.80
2022-10-09T18:43:53.511Z,21.80
2022-10-09T18:46:26.029Z,21.80
2022-10-09T18:48:54.887Z,21.80
2022-10-09T18:51:25.654Z,21.80
2022-10-09T18:53:57.266Z,21.80
2022-10-09T18:56:24.955Z,21.80
2022-10-09T18:58:53.221Z,21.80
2022-10-09T19:01:22.763Z,21.80
2022-10-09T19:03:50.562Z,21.80
2022-10-09T19:06:19.899Z,21.80
2022-10-09T19:08:47.369Z,21.70
2022-10-09T19:11:14.875Z,21.70
2022-10-09T19:13:44.187Z,21.70
2022-10-09T19:16:12.375Z,21.70
2022-10-09T19:18:39.821Z,21.70
2022-10-09T19:21:07.671Z,21.70
2022-10-09T19:23:35.009Z,21.70
2022-10-09T19:26:02.499Z,21.70
2022-10-09T19:28:37.934Z,21.70
2022-10-09T19:31:07.454Z,21.70
2022-10-09T19:33:35.990Z,21.70
2022-10-09T19:36:04.140Z,21.70
2022-10-09T19:38:31.750Z,21.70
2022-10-09T19:41:10.452Z,21.70
2022-10-09T19:43:38.304Z,21.60
2022-10-09T19:46:08.963Z,21.70
2022-10-09T19:48:36.981Z,21.60
2022-10-09T19:51:10.308Z,21.60
2022-10-09T19:53:38.227Z,21.60
2022-10-09T19:56:21.157Z,21.60
2022-10-09T19:58:49.850Z,21.60
2022-10-09T20:01:20.876Z,21.60
2022-10-09T20:03:48.990Z,21.60
2022-10-09T20:06:16.385Z,21.60
2022-10-09T20:08:45.274Z,21.50
2022-10-09T20:11:14.158Z,21.50
2022-10-09T20:13:42.730Z,21.50
2022-10-09T20:16:13.146Z,21.50
2022-10-09T20:18:42.521Z,21.50
2022-10-09T20:21:13.074Z,21.50
2022-10-09T20:23:41.187Z,21.50
2022-10-09T20:26:16.765Z,21.40
2022-10-09T20:28:44.799Z,21.40
2022-10-09T20:31:19.551Z,21.50
2022-10-09T20:33:48.251Z,21.40
2022-10-09T20:36:26.404Z,21.40
2022-10-09T20:38:58.503Z,21.40
2022-10-09T20:41:28.714Z,21.40
2022-10-09T20:43:57.854Z,21.40
2022-10-09T20:46:28.128Z,21.30
2022-10-09T20:48:55.628Z,21.30
2022-10-09T20:51:23.380Z,21.30
2022-10-09T20:53:56.199Z,21.30
2022-10-09T20:56:25.626Z,21.30
2022-10-09T20:58:53.865Z,21.20
2022-10-09T21:01:21.594Z,21.20
2022-10-09T21:03:49.297Z,21.20
2022-10-09T21:06:20.652Z,21.20
2022-10-09T21:08:48.107Z,21.20
2022-10-09T21:11:17.456Z,21.20
2022-10-09T21:13:45.929Z,21.10
2022-10-09T21:16:16.922Z,21.10
2022-10-09T21:18:44.224Z,21.10
2022-10-09T21:21:17.063Z,21.00
2022-10-09T21:23:45.275Z,21.00
2022-10-09T21:26:14.520Z,21.00
2022-10-09T21:28:42.763Z,21.00
2022-10-09T21:31:17.678Z,21.00
2022-10-09T21:33:46.028Z,21.00
2022-10-09T21:36:28.883Z,20.90
2022-10-09T21:38:56.279Z,20.90
2022-10-09T21:41:23.831Z,20.90
2022-10-09T21:43:51.207Z,20.90
2022-10-09T21:46:18.600Z,20.90
2022-10-09T21:48:46.083Z,20.90
2022-10-09T21:51:13.465Z,20.90
2022-10-09T21:53:40.814Z,20.90
2022-10-09T21:56:09.982Z,20.80
2022-10-09T21:58:38.503Z,20.80
2022-10-09T22:01:06.427Z,20.80
2022-10-09T22:03:36.227Z,20.80
2022-10-09T22:06:09.817Z,20.80
2022-10-09T22:08:38.450Z,20.80
2022-10-09T22:11:07.809Z,20.80
2022-10-09T22:13:35.347Z,20.70
2022-10-09T22:16:08.785Z,20.70
2022-10-09T22:18:36.539Z,20.70
2022-10-09T22:21:10.216Z,20.70
2022-10-09T22:23:37.767Z,20.70
2022-10-09T22:26:08.775Z,20.70
2022-10-09T22:28:36.281Z,20.70
2022-10-09T22:31:11.078Z,20.60
2022-10-09T22:33:39.190Z,20.70
2022-10-09T22:36:10.755Z,20.60
2022-10-09T22:38:39.039Z,20.60
2022-10-09T22:41:12.237Z,20.60
2022-10-09T22:43:40.475Z,20.60
2022-10-09T22:46:22.429Z,20.60
2022-10-09T22:48:50.814Z,20.60
2022-10-09T22:51:20.204Z,20.60
2022-10-09T22:53:48.034Z,20.60
2022-10-09T22:56:21.227Z,20.50
2022-10-09T22:58:49.393Z,20.50
2022-10-09T23:01:30.239Z,20.50
2022-10-09T23:03:59.452Z,20.50
2022-10-09T23:06:27.171Z,20.50
2022-10-09T23:08:55.220Z,20.50
2022-10-09T23:11:23.523Z,20.50
2022-10-09T23:13:55.510Z,20.40
2022-10-09T23:16:24.200Z,20.50
2022-10-09T23:18:51.919Z,20.40
2022-10-09T23:21:20.933Z,20.40
2022-10-09T23:23:49.227Z,20.40
2022-10-09T23:26:19.566Z,20.40
2022-10-09T23:29:11.521Z,20.40
2022-10-09T23:31:38.938Z,20.40
2022-10-09T23:34:07.233Z,20.30
2022-10-09T23:36:34.665Z,20.30
2022-10-09T23:39:04.784Z,20.30
2022-10-09T23:41:32.634Z,20.30
2022-10-09T23:44:00.102Z,20.30
2022-10-09T23:46:30.281Z,20.30
2022-10-09T23:48:57.763Z,20.30
2022-10-09T23:51:26.387Z,20.30
2022-10-09T23:53:54.275Z,20.30
2022-10-09T23:56:24.145Z,20.30
2022-10-09T23:58:52.493Z,20.20
